Time;durP1;ratioP1;P1;durP2;ratioP2;P2;SDS_P1;SDS_P2;PMS_P1;PMS_P2;Temp;Humidity;BMP_temperature;BMP_pressure;BME280_temperature;BME280_humidity;BME280_pressure;Samples;Min_cycle;Max_cycle;Signal;HPM_P1;HPM_P2
2022/01/01 00:00:44;;;;;;;52.00;44.20;;;;;;;10.89;100.00;101297.41;5025359;28;20737;-55
2022/01/01 00:03:12;;;;;;;35.70;30.07;;;;;;;10.90;100.00;101305.28;5024786;28;20264;-57
2022/01/01 00:05:38;;;;;;;37.70;32.20;;;;;;;10.94;100.00;101295.69;5023618;28;20649;-57
2022/01/01 00:08:06;;;;;;;32.20;28.77;;;;;;;10.91;100.00;101301.78;5024656;28;21025;-60
2022/01/01 00:10:32;;;;;;;31.17;25.93;;;;;;;10.88;100.00;101296.53;5024486;28;20253;-57
2022/01/01 00:12:59;;;;;;;28.37;24.37;;;;;;;10.90;100.00;101300.03;5024420;28;20275;-55
2022/01/01 00:15:25;;;;;;;25.50;20.97;;;;;;;11.02;100.00;101309.75;5025347;28;20705;-57
2022/01/01 00:17:51;;;;;;;22.53;20.13;;;;;;;11.06;100.00;101322.03;5025178;28;20800;-57
2022/01/01 00:20:19;;;;;;;20.67;18.37;;;;;;;11.05;100.00;101314.13;5025490;28;20356;-55
2022/01/01 00:22:45;;;;;;;20.73;18.57;;;;;;;11.06;100.00;101310.66;5025843;28;20224;-56
2022/01/01 00:25:13;;;;;;;22.53;18.30;;;;;;;11.07;100.00;101309.78;5024355;28;20264;-57
2022/01/01 00:27:39;;;;;;;23.73;19.60;;;;;;;11.08;100.00;101317.66;5024412;28;20709;-56
2022/01/01 00:30:07;;;;;;;26.03;20.03;;;;;;;10.97;100.00;101322.84;5024483;28;20737;-57
2022/01/01 00:32:33;;;;;;;21.80;17.63;;;;;;;10.93;100.00;101331.59;5025460;28;20240;-53
2022/01/01 00:35:00;;;;;;;19.80;16.67;;;;;;;10.94;100.00;101332.47;5024274;28;20286;-57
2022/01/01 00:37:27;;;;;;;24.33;17.63;;;;;;;10.96;100.00;101333.34;5025235;28;20795;-56
2022/01/01 00:39:55;;;;;;;19.30;17.20;;;;;;;10.98;100.00;101340.38;5025082;28;20263;-54
2022/01/01 00:42:21;;;;;;;18.23;15.70;;;;;;;10.98;100.00;101337.72;5024229;28;20599;-55
2022/01/01 00:44:48;;;;;;;20.43;16.50;;;;;;;10.96;100.00;101342.13;5024135;28;20276;-53
2022/01/01 00:47:14;;;;;;;22.67;17.03;;;;;;;11.00;100.00;101358.78;5024048;28;20264;-56
2022/01/01 00:49:40;;;;;;;24.17;18.93;;;;;;;11.01;100.00;101350.03;5024113;28;20236;-55
2022/01/01 00:52:07;;;;;;;22.17;18.93;;;;;;;10.95;100.00;101363.09;5024238;28;20819;-57
2022/01/01 00:54:34;;;;;;;21.63;17.07;;;;;;;11.09;100.00;101360.59;5024515;28;20729;-57
2022/01/01 00:57:01;;;;;;;17.73;15.83;;;;;;;11.01;100.00;101359.66;5024025;28;20804;-56
2022/01/01 00:59:28;;;;;;;20.60;15.37;;;;;;;11.01;100.00;101364.91;5023200;28;20286;-56
2022/01/01 01:01:54;;;;;;;19.47;16.10;;;;;;;11.02;100.00;101378.09;5017575;28;20732;-56
2022/01/01 01:04:20;;;;;;;22.40;16.43;;;;;;;11.08;100.00;101377.22;5024174;28;20252;-56
2022/01/01 01:06:47;;;;;;;16.53;14.83;;;;;;;11.01;100.00;101378.94;5024032;28;20257;-57
2022/01/01 01:09:13;;;;;;;18.80;14.67;;;;;;;11.01;100.00;101391.19;5024186;28;20614;-58
2022/01/01 01:11:45;;;;;;;18.40;14.30;;;;;;;10.98;100.00;101390.28;5024176;28;20239;-55
2022/01/01 01:14:19;;;;;;;18.10;15.03;;;;;;;10.96;100.00;101386.78;5023844;28;20240;-58
2022/01/01 01:16:46;;;;;;;15.93;14.30;;;;;;;11.02;100.00;101385.06;5024245;28;20545;-56
2022/01/01 01:19:12;;;;;;;18.37;15.13;;;;;;;10.96;100.00;101386.78;5024634;28;20228;-59
2022/01/01 01:21:38;;;;;;;18.27;14.70;;;;;;;10.94;100.00;101390.25;5030137;28;20232;-59
2022/01/01 01:24:05;;;;;;;15.40;13.43;;;;;;;10.92;100.00;101402.53;5027645;28;20282;-58
2022/01/01 01:26:31;;;;;;;14.87;13.27;;;;;;;11.01;100.00;101412.22;5027703;28;20239;-58
2022/01/01 01:29:02;;;;;;;16.73;15.03;;;;;;;10.98;100.00;101415.69;5027994;28;20298;-59
2022/01/01 01:31:29;;;;;;;16.30;14.20;;;;;;;10.95;100.00;101413.94;5027983;28;20731;-57
2022/01/01 01:33:56;;;;;;;17.93;16.03;;;;;;;10.94;100.00;101417.41;5027840;28;20242;-58
2022/01/01 01:36:22;;;;;;;17.27;15.13;;;;;;;10.97;100.00;101412.19;5023141;28;20236;-55
2022/01/01 01:38:48;;;;;;;19.97;15.13;;;;;;;10.91;100.00;101417.38;5027915;28;20260;-58
2022/01/01 01:41:15;;;;;;;16.27;13.10;;;;;;;10.95;100.00;101423.53;5027082;28;20736;-57
2022/01/01 01:43:41;;;;;;;13.37;11.90;;;;;;;10.96;100.00;101436.69;5026589;28;20604;-58
2022/01/01 01:46:12;;;;;;;17.07;13.53;;;;;;;10.99;100.00;101436.72;5026889;28;20244;-58
2022/01/01 01:48:39;;;;;;;18.63;15.10;;;;;;;10.96;100.00;101436.69;5026595;28;20324;-61
2022/01/01 01:51:05;;;;;;;17.37;15.00;;;;;;;11.03;100.00;101431.50;5027264;28;20322;-58
2022/01/01 01:53:33;;;;;;;23.23;15.37;;;;;;;11.03;100.00;101442.03;5027731;28;20228;-60
2022/01/01 01:56:00;;;;;;;18.57;15.10;;;;;;;11.02;100.00;101440.22;5027028;28;20960;-59
2022/01/01 01:58:28;;;;;;;21.47;15.60;;;;;;;10.92;100.00;101440.19;5026618;28;20795;-59
2022/01/01 02:03:46;;;;;;;19.23;16.20;;;;;;;10.87;100.00;101447.13;5010510;28;20251;-59
2022/01/01 02:06:12;;;;;;;21.03;15.73;;;;;;;10.86;100.00;101457.63;5027076;28;20244;-59
2022/01/01 02:08:38;;;;;;;19.03;15.57;;;;;;;10.96;100.00;101449.84;5027338;28;20351;-60
2022/01/01 02:11:05;;;;;;;23.37;15.57;;;;;;;10.78;100.00;101449.69;5026675;28;20252;-60
2022/01/01 02:13:39;;;;;;;22.13;15.57;;;;;;;10.90;100.00;101462.91;5026980;28;20282;-59
2022/01/01 02:16:28;;;;;;;21.10;16.37;;;;;;;10.98;100.00;101455.97;5027229;28;20729;-59
2022/01/01 02:18:56;;;;;;;17.93;15.10;;;;;;;10.87;100.00;101468.13;5026429;28;20240;-60
2022/01/01 02:21:23;;;;;;;20.57;14.77;;;;;;;10.89;100.00;101466.41;5027614;28;20789;-60
2022/01/01 02:23:57;;;;;;;17.20;15.23;;;;;;;10.91;100.00;101475.16;5027372;28;20240;-59
2022/01/01 02:26:29;;;;;;;19.77;15.00;;;;;;;10.94;100.00;101480.47;5026716;28;20271;-60
2022/01/01 02:28:55;;;;;;;19.40;15.80;;;;;;;10.93;100.00;101473.44;5023334;28;20233;-59
2022/01/01 02:31:21;;;;;;;19.87;15.87;;;;;;;10.90;100.00;101468.16;5025694;28;20233;-58
2022/01/01 02:33:48;;;;;;;21.17;15.77;;;;;;;10.90;100.00;101473.41;5026212;28;20286;-58
2022/01/01 02:36:14;;;;;;;22.40;14.90;;;;;;;10.93;100.00;101478.72;5025781;28;20271;-59
2022/01/01 02:38:42;;;;;;;17.67;14.93;;;;;;;10.88;100.00;101483.06;5026948;28;20252;-58
2022/01/01 02:41:08;;;;;;;20.13;15.40;;;;;;;10.86;100.00;101476.88;5026406;28;20326;-60
2022/01/01 02:43:44;;;;;;;19.70;16.17;;;;;;;10.96;100.00;101475.25;5025920;28;20327;-58
2022/01/01 02:46:10;;;;;;;19.93;15.87;;;;;;;10.82;100.00;101480.34;5026025;28;20314;-58
2022/01/01 02:48:36;;;;;;;22.40;15.67;;;;;;;10.86;100.00;101487.41;5025706;28;20260;-60
2022/01/01 02:51:03;;;;;;;23.90;15.73;;;;;;;10.88;100.00;101479.53;5026288;28;20240;-58
2022/01/01 02:53:30;;;;;;;23.03;16.80;;;;;;;10.90;100.00;101476.03;5027057;28;20663;-60
2022/01/01 02:55:57;;;;;;;19.93;16.20;;;;;;;10.86;100.00;101479.53;5026099;28;20236;-57
2022/01/01 02:58:24;;;;;;;21.33;17.23;;;;;;;10.83;100.00;101471.59;5024999;28;20260;-59
2022/01/01 03:00:50;;;;;;;22.83;16.10;;;;;;;10.77;100.00;101482.03;5026492;28;20256;-58
2022/01/01 03:03:16;;;;;;;20.77;16.03;;;;;;;10.80;100.00;101483.81;5025883;28;20240;-59
2022/01/01 03:05:43;;;;;;;20.30;15.33;;;;;;;10.84;100.00;101485.63;5024953;28;20256;-59
2022/01/01 03:08:09;;;;;;;19.60;15.13;;;;;;;10.83;100.00;101476.84;5025799;28;20236;-59
2022/01/01 03:10:35;;;;;;;19.20;14.67;;;;;;;10.86;100.00;101487.41;5026865;28;20631;-59
2022/01/01 03:13:03;;;;;;;19.70;14.30;;;;;;;10.82;100.00;101490.88;5025205;28;20264;-59
2022/01/01 03:15:29;;;;;;;21.83;16.10;;;;;;;10.88;100.00;101504.06;5031070;28;20322;-58
2022/01/01 03:17:56;;;;;;;21.90;15.27;;;;;;;10.87;100.00;101504.91;5026591;28;20264;-60
2022/01/01 03:20:23;;;;;;;18.10;13.33;;;;;;;10.91;100.00;101503.19;5026559;28;20600;-57
2022/01/01 03:22:49;;;;;;;22.33;14.77;;;;;;;10.77;100.00;101510.94;5025663;28;20799;-59
2022/01/01 03:25:15;;;;;;;22.00;14.87;;;;;;;10.86;100.00;101513.66;5025894;28;20252;-58
2022/01/01 03:27:42;;;;;;;17.33;14.93;;;;;;;10.81;100.00;101519.72;5025996;28;20240;-59
2022/01/01 03:30:10;;;;;;;17.83;13.30;;;;;;;10.82;100.00;101513.63;5027408;28;20306;-59
2022/01/01 03:32:36;;;;;;;21.00;15.27;;;;;;;10.89;100.00;101518.97;5028110;28;20232;-60
2022/01/01 03:35:03;;;;;;;21.37;13.60;;;;;;;10.80;100.00;101516.22;5027480;28;20466;-58
2022/01/01 03:37:29;;;;;;;25.07;14.63;;;;;;;10.75;100.00;101510.94;5030195;28;20254;-57
2022/01/01 03:39:56;;;;;;;18.50;13.57;;;;;;;10.72;100.00;101517.91;5029799;28;20232;-58
2022/01/01 03:42:22;;;;;;;16.13;13.20;;;;;;;10.77;100.00;101513.56;5026174;28;20271;-60
2022/01/01 03:44:48;;;;;;;21.67;14.30;;;;;;;10.69;100.00;101516.09;5026741;28;20233;-58
2022/01/01 03:47:16;;;;;;;17.90;11.83;;;;;;;10.75;100.00;101513.56;5026379;28;20267;-58
2022/01/01 03:49:42;;;;;;;19.73;13.37;;;;;;;10.80;100.00;101518.84;5026792;28;20241;-59
2022/01/01 03:52:09;;;;;;;18.93;13.47;;;;;;;10.70;100.00;101528.38;5027356;28;20232;-58
2022/01/01 03:54:35;;;;;;;18.83;12.80;;;;;;;10.90;100.00;101518.09;5027835;28;20224;-58
2022/01/01 03:57:02;;;;;;;18.33;12.23;;;;;;;10.88;100.00;101514.59;5027042;28;20690;-61
2022/01/01 03:59:28;;;;;;;19.23;12.53;;;;;;;10.86;100.00;101518.03;5029957;28;20255;-60
2022/01/01 04:01:55;;;;;;;18.10;12.57;;;;;;;10.89;100.00;101516.34;5028642;28;20232;-58
2022/01/01 04:04:25;;;;;;;17.83;12.27;;;;;;;10.83;100.00;101511.00;5025933;28;20320;-60
2022/01/01 04:06:51;;;;;;;13.97;10.90;;;;;;;10.75;100.00;101526.69;5026770;28;20243;-62
2022/01/01 04:09:18;;;;;;;16.13;10.90;;;;;;;10.84;100.00;101531.16;5025733;28;20263;-59
2022/01/01 04:11:44;;;;;;;13.13;10.80;;;;;;;10.87;100.00;101535.56;5023625;28;20726;-59
2022/01/01 04:14:13;;;;;;;21.43;11.90;;;;;;;10.81;100.00;101546.91;5024315;28;20365;-60
2022/01/01 04:16:40;;;;;;;16.80;12.63;;;;;;;10.76;100.00;101543.31;5024686;28;20240;-58
2022/01/01 04:19:06;;;;;;;15.47;11.90;;;;;;;10.77;100.00;101549.47;5023753;28;20233;-58
2022/01/01 04:21:34;;;;;;;15.80;11.63;;;;;;;10.80;100.00;101550.38;5026703;28;20244;-58
2022/01/01 04:24:00;;;;;;;14.37;11.17;;;;;;;10.79;100.00;101555.63;5025218;28;20267;-61
2022/01/01 04:26:26;;;;;;;14.43;11.47;;;;;;;10.79;100.00;101563.50;5023360;28;20319;-58
2022/01/01 04:28:53;;;;;;;16.63;11.20;;;;;;;10.86;100.00;101570.59;5016447;28;20240;-58
2022/01/01 04:31:19;;;;;;;22.03;11.73;;;;;;;10.82;100.00;101564.41;5024445;28;20241;-57
2022/01/01 04:33:46;;;;;;;17.50;11.43;;;;;;;10.82;100.00;101567.03;5023972;28;20791;-57
2022/01/01 04:36:13;;;;;;;14.57;12.37;;;;;;;10.75;100.00;101567.84;5023851;28;20240;-59
2022/01/01 04:38:42;;;;;;;21.83;13.53;;;;;;;10.76;100.00;101559.09;5024349;28;20544;-59
2022/01/01 04:41:10;;;;;;;17.40;11.27;;;;;;;10.82;100.00;101553.03;5023961;28;20244;-60
2022/01/01 04:43:36;;;;;;;17.60;11.70;;;;;;;10.81;100.00;101554.78;5024022;28;20240;-57
2022/01/01 04:46:02;;;;;;;22.50;11.17;;;;;;;10.83;100.00;101558.28;5024469;28;20315;-59
2022/01/01 04:48:29;;;;;;;14.53;12.47;;;;;;;10.82;100.00;101559.16;5024283;28;20668;-60
2022/01/01 04:50:55;;;;;;;16.43;13.20;;;;;;;10.79;100.00;101564.38;5024900;28;20228;-59
2022/01/01 04:53:22;;;;;;;21.90;13.77;;;;;;;10.78;100.00;101565.25;5024248;28;20243;-58
2022/01/01 04:55:50;;;;;;;15.53;13.27;;;;;;;10.77;100.00;101571.34;5027650;28;20243;-58
2022/01/01 04:58:17;;;;;;;21.23;13.93;;;;;;;10.75;100.00;101575.72;5027027;28;20232;-57
2022/01/01 05:00:43;;;;;;;18.17;12.73;;;;;;;10.75;100.00;101579.22;5029653;28;20232;-57
2022/01/01 05:03:10;;;;;;;21.00;14.90;;;;;;;10.71;100.00;101566.03;5029061;28;20236;-57
2022/01/01 05:05:36;;;;;;;19.70;12.63;;;;;;;10.80;100.00;101565.25;5027949;28;20694;-56
2022/01/01 05:08:02;;;;;;;21.20;13.93;;;;;;;10.80;100.00;101568.75;5033079;28;20236;-57
2022/01/01 05:10:29;;;;;;;18.33;14.03;;;;;;;10.83;100.00;101565.28;5030969;28;20233;-55
2022/01/01 05:12:56;;;;;;;16.93;13.13;;;;;;;10.72;100.00;101575.69;5028395;28;20252;-57
2022/01/01 05:15:23;;;;;;;17.67;13.43;;;;;;;10.66;100.00;101583.47;5024005;28;20776;-58
2022/01/01 05:17:49;;;;;;;16.10;13.10;;;;;;;10.62;100.00;101579.06;5027835;28;20236;-58
2022/01/01 05:20:15;;;;;;;19.83;12.53;;;;;;;10.71;100.00;101581.81;5028321;28;20318;-56
2022/01/01 05:22:42;;;;;;;15.70;13.67;;;;;;;10.68;100.00;101581.75;5028529;28;20240;-58
2022/01/01 05:25:09;;;;;;;22.00;13.53;;;;;;;10.68;100.00;101592.25;5027382;28;20232;-57
2022/01/01 05:27:36;;;;;;;24.07;14.10;;;;;;;10.77;100.00;101586.22;5027030;28;20770;-57
2022/01/01 05:30:06;;;;;;;24.73;13.93;;;;;;;10.73;100.00;101593.19;5027881;28;20251;-54
2022/01/01 05:32:32;;;;;;;17.43;14.23;;;;;;;10.66;100.00;101600.09;5027364;28;20228;-61
2022/01/01 05:34:58;;;;;;;18.93;13.83;;;;;;;10.74;100.00;101598.47;5026992;28;20657;-56
2022/01/01 05:37:25;;;;;;;18.93;13.83;;;;;;;10.72;100.00;101599.31;5027365;28;20307;-57
2022/01/01 05:39:51;;;;;;;15.87;13.63;;;;;;;10.86;100.00;101600.38;5027857;28;20248;-55
2022/01/01 05:42:17;;;;;;;21.57;13.43;;;;;;;10.86;100.00;101608.25;5026484;28;20787;-56
2022/01/01 05:44:44;;;;;;;21.93;13.77;;;;;;;10.89;100.00;101605.66;5027430;28;20351;-55
2022/01/01 05:47:12;;;;;;;15.30;12.87;;;;;;;10.87;100.00;101606.50;5026895;28;20646;-57
2022/01/01 05:49:38;;;;;;;18.53;12.43;;;;;;;10.85;100.00;101611.75;5026398;28;20293;-56
2022/01/01 05:52:05;;;;;;;22.17;13.83;;;;;;;10.86;100.00;101610.88;5026999;28;20241;-58
2022/01/01 05:54:31;;;;;;;24.80;14.40;;;;;;;10.83;100.00;101618.72;5027870;28;20306;-55
2022/01/01 05:56:57;;;;;;;21.03;12.93;;;;;;;10.86;100.00;101623.13;5026496;28;20294;-57
2022/01/01 05:59:24;;;;;;;17.23;12.83;;;;;;;10.83;100.00;101618.72;5026174;28;20240;-56
2022/01/01 06:01:50;;;;;;;17.97;12.67;;;;;;;10.91;100.00;101632.81;5026538;28;20252;-58
2022/01/01 06:04:17;;;;;;;21.07;12.97;;;;;;;10.82;100.00;101627.47;5025836;28;20260;-55
2022/01/01 06:06:44;;;;;;;17.63;11.07;;;;;;;10.95;100.00;101629.38;5026054;28;20311;-58
2022/01/01 06:09:10;;;;;;;19.93;12.47;;;;;;;10.90;100.00;101625.81;5026657;28;20271;-57
2022/01/01 06:11:36;;;;;;;16.97;12.13;;;;;;;10.83;100.00;101628.34;5026810;28;20239;-57
2022/01/01 06:14:03;;;;;;;20.67;13.40;;;;;;;10.88;100.00;101637.16;5025465;28;20260;-57
2022/01/01 06:16:29;;;;;;;22.60;13.13;;;;;;;10.89;100.00;101637.19;5026939;28;20287;-56
2022/01/01 06:18:56;;;;;;;21.00;13.33;;;;;;;10.84;100.00;101640.59;5026360;28;20240;-58
2022/01/01 06:21:23;;;;;;;18.87;12.27;;;;;;;10.87;100.00;101649.41;5027600;28;21762;-57
2022/01/01 06:23:50;;;;;;;19.77;11.60;;;;;;;10.80;100.00;101650.19;5026444;28;20228;-56
2022/01/01 06:26:16;;;;;;;14.60;11.53;;;;;;;10.84;100.00;101646.72;5025936;28;20779;-57
2022/01/01 06:28:42;;;;;;;18.30;12.17;;;;;;;10.86;100.00;101655.53;5025853;28;20240;-55
2022/01/01 06:31:09;;;;;;;22.20;13.17;;;;;;;10.88;100.00;101659.06;5026176;28;20283;-56
2022/01/01 06:33:35;;;;;;;17.00;12.90;;;;;;;10.86;100.00;101659.91;5026089;28;20228;-57
2022/01/01 06:36:01;;;;;;;16.87;12.57;;;;;;;10.91;100.00;101659.09;5026831;28;20259;-57
2022/01/01 06:38:29;;;;;;;21.23;12.43;;;;;;;10.86;100.00;101662.53;5026276;28;20228;-56
2022/01/01 06:40:55;;;;;;;21.40;12.33;;;;;;;10.92;100.00;101665.25;5027023;28;20244;-58
2022/01/01 06:43:23;;;;;;;16.23;12.67;;;;;;;10.79;100.00;101669.44;5026098;28;20264;-58
2022/01/01 06:45:50;;;;;;;21.70;12.23;;;;;;;10.85;100.00;101664.28;5026581;28;20769;-57
2022/01/01 06:48:16;;;;;;;17.67;11.57;;;;;;;10.90;100.00;101665.22;5026755;28;20284;-58
2022/01/01 06:50:42;;;;;;;22.30;13.37;;;;;;;10.92;100.00;101676.63;5027155;28;20243;-55
2022/01/01 06:53:09;;;;;;;18.40;14.17;;;;;;;11.03;100.00;101676.78;5028131;28;20232;-56
2022/01/01 06:55:37;;;;;;;15.17;12.30;;;;;;;11.08;100.00;101674.19;5027919;28;20259;-57
2022/01/01 06:58:03;;;;;;;19.53;12.50;;;;;;;11.01;100.00;101683.72;5026598;28;20236;-58
2022/01/01 07:00:29;;;;;;;14.97;11.27;;;;;;;11.09;100.00;101683.81;5028522;28;20233;-54
2022/01/01 07:02:55;;;;;;;15.03;12.03;;;;;;;11.09;100.00;101683.81;5026034;28;20795;-57
2022/01/01 07:05:22;;;;;;;16.57;11.93;;;;;;;11.08;100.00;101693.47;5025105;28;20252;-56
2022/01/01 07:07:48;;;;;;;21.13;12.03;;;;;;;11.09;100.00;101683.81;5025978;28;20240;-55
2022/01/01 07:10:14;;;;;;;20.23;11.23;;;;;;;11.11;100.00;101697.88;5025823;28;20241;-55
2022/01/01 07:12:42;;;;;;;18.37;11.93;;;;;;;11.18;100.00;101699.72;5025694;28;20275;-55
2022/01/01 07:15:09;;;;;;;20.13;11.13;;;;;;;11.12;100.00;101704.88;5025490;28;20314;-55
2022/01/01 07:17:36;;;;;;;18.10;11.57;;;;;;;11.10;100.00;101701.38;5025351;28;20298;-56
2022/01/01 07:20:02;;;;;;;17.27;12.13;;;;;;;11.17;100.00;101714.63;5026123;28;20737;-57
2022/01/01 07:22:29;;;;;;;15.90;11.33;;;;;;;11.10;100.00;101710.13;5025717;28;20779;-54
2022/01/01 07:24:55;;;;;;;20.43;11.27;;;;;;;11.09;100.00;101710.09;5026277;28;20733;-54
2022/01/01 07:27:21;;;;;;;14.33;11.03;;;;;;;11.21;100.00;101715.53;5025560;28;20507;-57
2022/01/01 07:29:49;;;;;;;17.37;11.37;;;;;;;11.29;100.00;101719.13;5025230;28;20926;-54
2022/01/01 07:32:16;;;;;;;17.23;10.77;;;;;;;11.16;100.00;101718.09;5026517;28;20266;-56
2022/01/01 07:34:42;;;;;;;16.57;9.77;;;;;;;11.22;100.00;101722.53;5025360;28;20233;-57
2022/01/01 07:37:08;;;;;;;21.27;11.40;;;;;;;11.22;100.00;101728.69;5025019;28;20267;-53
2022/01/01 07:39:35;;;;;;;21.47;10.90;;;;;;;11.19;100.00;101735.66;5025980;28;20607;-54
2022/01/01 07:42:01;;;;;;;16.13;10.13;;;;;;;11.28;100.00;101738.41;5026583;28;20256;-53
2022/01/01 07:44:27;;;;;;;20.03;13.47;;;;;;;11.23;100.00;101753.22;5025397;28;21223;-55
2022/01/01 07:46:55;;;;;;;19.00;11.70;;;;;;;11.14;100.00;101740.84;5018315;28;20694;-54
2022/01/01 07:49:22;;;;;;;17.27;11.73;;;;;;;11.15;100.00;101749.63;5024979;28;20232;-55
2022/01/01 07:51:48;;;;;;;21.53;12.63;;;;;;;11.25;100.00;101743.63;5025348;28;20236;-55
2022/01/01 07:54:14;;;;;;;18.60;10.63;;;;;;;11.20;100.00;101750.56;5023343;28;20318;-55
2022/01/01 07:56:41;;;;;;;14.73;10.60;;;;;;;11.25;100.00;101756.75;5024828;28;20699;-54
2022/01/01 07:59:07;;;;;;;15.37;10.60;;;;;;;11.34;100.00;101756.88;5024022;28;20321;-52
2022/01/01 08:01:33;;;;;;;18.60;11.67;;;;;;;11.30;100.00;101762.06;5025403;28;20241;-56
2022/01/01 08:04:02;;;;;;;18.07;11.57;;;;;;;11.32;100.00;101758.59;5025229;28;20798;-55
2022/01/01 08:06:29;;;;;;;16.97;11.63;;;;;;;11.23;100.00;101768.97;5024473;28;20311;-54
2022/01/01 08:08:56;;;;;;;17.43;12.37;;;;;;;11.19;100.00;101764.56;5025341;28;20263;-52
2022/01/01 08:11:22;;;;;;;17.77;11.23;;;;;;;11.19;100.00;101764.56;5025215;28;20764;-55
2022/01/01 08:13:48;;;;;;;16.70;11.03;;;;;;;11.28;100.00;101764.69;5024453;28;20236;-55
2022/01/01 08:16:15;;;;;;;16.73;11.37;;;;;;;11.25;100.00;101756.75;5024401;28;20249;-53
2022/01/01 08:18:41;;;;;;;17.97;11.43;;;;;;;11.25;100.00;101759.38;5026857;28;20286;-54
2022/01/01 08:21:09;;;;;;;22.33;12.33;;;;;;;11.30;100.00;101770.88;5039225;28;20232;-54
2022/01/01 08:23:35;;;;;;;20.07;12.00;;;;;;;11.36;100.00;101773.53;5028036;28;20228;-54
2022/01/01 08:26:01;;;;;;;17.40;12.20;;;;;;;11.38;100.00;101771.84;5025409;28;20319;-54
2022/01/01 08:28:28;;;;;;;15.23;10.73;;;;;;;11.32;100.00;101771.75;5025110;28;20259;-56
2022/01/01 08:30:54;;;;;;;25.73;13.80;;;;;;;11.29;100.00;101782.22;5029445;28;20267;-55
2022/01/01 08:33:21;;;;;;;18.03;12.13;;;;;;;11.27;100.00;101777.78;5029437;28;20236;-56
2022/01/01 08:35:47;;;;;;;22.80;12.83;;;;;;;11.30;100.00;101777.84;5029074;28;20232;-57
2022/01/01 08:38:15;;;;;;;20.83;13.37;;;;;;;11.32;100.00;101774.38;5029019;28;20240;-56
2022/01/01 08:40:42;;;;;;;18.03;11.80;;;;;;;11.30;100.00;101778.75;5029549;28;20232;-56
2022/01/01 08:43:08;;;;;;;19.10;11.83;;;;;;;11.29;100.00;101782.22;5027703;28;20291;-56
2022/01/01 08:45:37;;;;;;;18.83;12.33;;;;;;;11.43;100.00;101779.75;5028920;28;20236;-56
2022/01/01 08:48:03;;;;;;;17.77;11.57;;;;;;;11.35;100.00;101787.56;5029445;28;20675;-56
2022/01/01 08:50:30;;;;;;;20.67;10.97;;;;;;;11.40;100.00;101790.25;5028932;28;20228;-54
2022/01/01 08:52:57;;;;;;;15.63;12.17;;;;;;;11.33;100.00;101794.53;5028550;28;20240;-55
2022/01/01 08:55:25;;;;;;;21.33;11.30;;;;;;;11.47;100.00;101799.97;5028269;28;20316;-54
2022/01/01 08:57:51;;;;;;;18.77;12.97;;;;;;;11.44;100.00;101792.03;5027057;28;20244;-55
2022/01/01 09:00:18;;;;;;;16.17;12.07;;;;;;;11.50;100.00;101799.13;5028625;28;20806;-54
2022/01/01 09:02:44;;;;;;;22.00;12.30;;;;;;;11.45;100.00;101797.34;5028771;28;20255;-54
2022/01/01 09:05:11;;;;;;;27.00;13.03;;;;;;;11.56;100.00;101807.09;5027216;28;20263;-55
2022/01/01 09:07:38;;;;;;;18.83;13.57;;;;;;;11.44;100.00;101810.44;5028225;28;20645;-55
2022/01/01 09:10:05;;;;;;;20.83;11.67;;;;;;;11.59;100.00;101812.41;5028034;28;20298;-56
2022/01/01 09:12:33;;;;;;;20.90;11.57;;;;;;;11.52;100.00;101815.84;5028550;28;20260;-55
2022/01/01 09:14:59;;;;;;;21.23;13.33;;;;;;;11.59;100.00;101820.31;5032039;28;20245;-54
2022/01/01 09:17:26;;;;;;;17.93;12.90;;;;;;;11.63;100.00;101828.25;5035402;28;20236;-55
2022/01/01 09:19:52;;;;;;;22.70;12.77;;;;;;;11.61;100.00;101836.97;5028062;28;20257;-55
2022/01/01 09:22:19;;;;;;;18.37;12.10;;;;;;;11.66;100.00;101840.56;5030178;28;20237;-55
2022/01/01 09:24:45;;;;;;;19.07;12.30;;;;;;;11.58;100.00;101836.91;5027912;28;20548;-53
2022/01/01 09:27:12;;;;;;;19.57;11.73;;;;;;;11.59;100.00;101836.09;5026876;28;20267;-55
2022/01/01 09:29:39;;;;;;;27.97;19.17;;;;;;;11.60;100.00;101851.00;5027209;28;20237;-54
2022/01/01 09:32:06;;;;;;;22.73;13.63;;;;;;;11.65;100.00;101849.28;5027278;28;20733;-56
2022/01/01 09:34:32;;;;;;;20.40;12.87;;;;;;;11.67;100.00;101847.56;5027795;28;20475;-56
2022/01/01 09:36:59;;;;;;;19.87;12.83;;;;;;;11.66;100.00;101851.97;5027521;28;20248;-53
2022/01/01 09:39:25;;;;;;;27.73;12.07;;;;;;;11.70;100.00;101860.78;5027753;28;20333;-53
2022/01/01 09:41:52;;;;;;;19.63;12.97;;;;;;;11.58;100.00;101855.34;5027692;28;20221;-55
2022/01/01 09:44:20;;;;;;;17.60;12.07;;;;;;;11.60;100.00;101862.38;5026752;28;20233;-54
2022/01/01 09:46:51;;;;;;;20.63;12.07;;;;;;;11.64;100.00;101858.06;5028639;28;20239;-55
2022/01/01 09:49:18;;;;;;;21.13;12.57;;;;;;;11.73;100.00;101868.69;5023912;28;20283;-53
2022/01/01 09:51:45;;;;;;;20.37;11.70;;;;;;;11.61;100.00;101872.03;5028941;28;20244;-57
2022/01/01 09:54:12;;;;;;;18.60;12.70;;;;;;;11.69;100.00;101870.41;5027838;28;20248;-53
2022/01/01 09:56:39;;;;;;;21.37;12.10;;;;;;;11.67;100.00;101872.13;5027843;28;20263;-52
2022/01/01 09:59:05;;;;;;;19.30;12.20;;;;;;;11.67;100.00;101879.13;5026960;28;20290;-56
2022/01/01 10:01:32;;;;;;;23.20;13.33;;;;;;;11.69;100.00;101877.44;5028837;28;20252;-54
2022/01/01 10:04:00;;;;;;;20.17;12.43;;;;;;;11.66;100.00;101882.66;5027596;28;20232;-55
2022/01/01 10:06:29;;;;;;;29.03;13.47;;;;;;;11.60;100.00;101882.56;5027073;28;20237;-54
2022/01/01 10:08:56;;;;;;;24.30;13.60;;;;;;;11.69;100.00;101880.06;5027462;28;20426;-55
2022/01/01 10:11:23;;;;;;;17.33;12.43;;;;;;;11.54;100.00;101880.72;5027313;28;20303;-54
2022/01/01 10:13:50;;;;;;;25.00;14.47;;;;;;;11.59;100.00;101878.16;5026394;28;20224;-55
2022/01/01 10:16:17;;;;;;;23.80;12.50;;;;;;;11.60;100.00;101885.19;5026575;28;20233;-54
2022/01/01 10:18:45;;;;;;;20.13;13.33;;;;;;;11.68;100.00;101886.16;5027715;28;20259;-55
2022/01/01 10:21:14;;;;;;;20.77;13.43;;;;;;;11.57;100.00;101885.13;5029755;28;20229;-53
2022/01/01 10:23:42;;;;;;;18.50;13.37;;;;;;;11.62;100.00;101886.97;5027987;28;20699;-54
2022/01/01 10:29:08;;;;;;;21.70;13.20;;;;;;;11.59;100.00;101892.19;5021114;28;20295;-53
2022/01/01 10:31:36;;;;;;;20.77;13.67;;;;;;;11.55;100.00;101885.13;5025898;28;20799;-55
2022/01/01 10:34:10;;;;;;;26.70;15.07;;;;;;;11.52;100.00;101892.09;5028019;28;20263;-54
2022/01/01 10:36:38;;;;;;;28.50;13.13;;;;;;;11.58;100.00;101890.44;5028295;28;20247;-53
2022/01/01 10:39:11;;;;;;;24.43;14.27;;;;;;;11.65;100.00;101896.63;5030693;28;20279;-54
2022/01/01 10:41:47;;;;;;;21.07;12.93;;;;;;;11.65;100.00;101894.00;5029388;28;20236;-55
2022/01/01 10:44:14;;;;;;;21.40;14.00;;;;;;;11.67;100.00;101887.03;5027910;28;20236;-55
2022/01/01 10:46:40;;;;;;;25.50;15.67;;;;;;;11.68;100.00;101891.41;5039078;28;20274;-58
2022/01/01 10:49:30;;;;;;;25.27;15.70;;;;;;;11.69;100.00;101893.22;5030922;28;20302;-53
2022/01/01 10:52:12;;;;;;;27.10;14.83;;;;;;;11.73;100.00;101900.28;5023330;28;20264;-53
2022/01/01 10:54:38;;;;;;;26.43;15.47;;;;;;;11.77;100.00;101894.19;5032667;28;20246;-54
2022/01/01 10:57:07;;;;;;;23.83;15.30;;;;;;;11.75;100.00;101898.53;5033376;28;20232;-55
2022/01/01 10:59:38;;;;;;;22.27;13.97;;;;;;;11.80;100.00;101895.97;5029127;28;20665;-57
2022/01/01 11:02:06;;;;;;;29.87;14.77;;;;;;;11.77;100.00;101891.56;5028570;28;20229;-53
2022/01/01 11:04:33;;;;;;;21.80;14.77;;;;;;;11.83;100.00;101894.25;5028211;28;20245;-54
2022/01/01 11:07:01;;;;;;;20.30;13.13;;;;;;;11.73;100.00;101889.75;5027216;28;20240;-54